Time;durP1;ratioP1;P1;durP2;ratioP2;P2;SDS_P1;SDS_P2;PMS_P1;PMS_P2;Temp;Humidity;BMP_temperature;BMP_pressure;BME280_temperature;BME280_humidity;BME280_pressure;Samples;Min_cycle;Max_cycle;Signal;HPM_P1;HPM_P2
2022/09/08 00:02:40;;;;;;;4.33;1.87;;;22.00;41.60;;;;;;10558476;27;20238;-75
2022/09/08 00:07:47;;;;;;;3.13;2.10;;;21.80;42.20;;;;;;10555785;28;20231;-75
2022/09/08 00:12:50;;;;;;;4.67;1.73;;;21.70;43.20;;;;;;10555802;27;20235;-75
2022/09/08 00:17:53;;;;;;;3.43;1.90;;;21.60;42.10;;;;;;10562019;28;20284;-75
2022/09/08 00:22:58;;;;;;;4.03;1.60;;;21.60;42.00;;;;;;10558885;27;20304;-76
2022/09/08 00:28:01;;;;;;;1.87;1.40;;;21.50;42.50;;;;;;10548508;28;20227;-76
2022/09/08 00:33:04;;;;;;;1.77;1.40;;;21.60;41.70;;;;;;10546523;28;20288;-76
2022/09/08 00:38:09;;;;;;;2.13;1.30;;;21.60;41.30;;;;;;10550556;27;20227;-76
2022/09/08 00:43:28;;;;;;;1.73;1.10;;;21.60;41.80;;;;;;10558541;28;20230;-76
2022/09/08 00:48:32;;;;;;;2.63;1.00;;;21.60;41.00;;;;;;10560001;28;20226;-75
2022/09/08 00:53:38;;;;;;;1.40;0.77;;;21.60;40.60;;;;;;10557509;28;20219;-76
2022/09/08 00:58:42;;;;;;;0.87;0.80;;;21.50;41.30;;;;;;10554437;27;20234;-75
2022/09/08 01:03:45;;;;;;;1.67;0.93;;;21.50;40.70;;;;;;10556712;28;20288;-76
2022/09/08 01:14:44;;;;;;;1.73;0.90;;;21.50;42.00;;;;;;10519640;28;20234;-76
2022/09/08 01:19:47;;;;;;;1.90;1.10;;;21.50;42.10;;;;;;10554920;28;20246;-76
2022/09/08 01:24:57;;;;;;;2.10;1.00;;;21.50;40.90;;;;;;10553652;27;20227;-76
2022/09/08 01:30:06;;;;;;;1.13;0.93;;;21.50;42.10;;;;;;10554564;28;20227;-76
2022/09/08 01:35:09;;;;;;;2.10;1.10;;;21.50;42.20;;;;;;10555911;28;20234;-75
2022/09/08 01:40:12;;;;;;;2.30;1.17;;;21.40;41.20;;;;;;10558379;27;20629;-76
2022/09/08 01:45:17;;;;;;;1.93;1.13;;;21.30;41.30;;;;;;10552264;27;20223;-76
2022/09/08 01:50:21;;;;;;;2.00;1.20;;;21.30;42.40;;;;;;10549828;28;20215;-76
2022/09/08 01:55:24;;;;;;;1.83;1.30;;;21.30;41.80;;;;;;10546086;28;20239;-75
2022/09/08 02:00:28;;;;;;;4.70;1.47;;;21.20;41.70;;;;;;10559358;27;20890;-76
2022/09/08 02:05:31;;;;;;;1.93;1.40;;;21.00;42.70;;;;;;10552409;28;20226;-76
2022/09/08 02:10:35;;;;;;;1.57;1.00;;;20.90;42.20;;;;;;10557889;27;20230;-76
2022/09/08 02:15:40;;;;;;;1.30;0.93;;;20.90;42.40;;;;;;10549988;28;20234;-77
2022/09/08 02:20:43;;;;;;;1.23;0.80;;;20.90;42.70;;;;;;10553110;28;20323;-77
2022/09/08 02:25:46;;;;;;;1.10;0.93;;;20.90;42.20;;;;;;10548004;27;20236;-78
2022/09/08 02:30:51;;;;;;;1.00;0.90;;;20.90;42.40;;;;;;10545101;28;20235;-78
2022/09/08 02:35:55;;;;;;;1.73;1.20;;;20.90;42.90;;;;;;10555004;28;20237;-76
2022/09/08 02:40:59;;;;;;;1.20;1.10;;;20.90;42.50;;;;;;10544163;28;20211;-76
2022/09/08 02:46:08;;;;;;;1.20;1.10;;;20.90;42.50;;;;;;10554914;28;20261;-77
2022/09/08 02:51:13;;;;;;;1.80;1.30;;;20.80;44.00;;;;;;10547209;27;20219;-77
2022/09/08 02:56:16;;;;;;;2.33;1.30;;;20.80;42.90;;;;;;10546231;28;20218;-77
2022/09/08 03:01:22;;;;;;;1.23;1.00;;;20.70;42.60;;;;;;10549279;27;20709;-76
2022/09/08 03:06:25;;;;;;;1.10;1.00;;;20.60;43.50;;;;;;10552409;28;20308;-76
2022/09/08 03:11:28;;;;;;;2.83;1.20;;;20.50;43.00;;;;;;10553338;27;20237;-76
2022/09/08 03:16:33;;;;;;;1.30;1.20;;;20.40;43.30;;;;;;10548293;28;20227;-76
2022/09/08 03:21:36;;;;;;;1.00;1.00;;;20.40;44.10;;;;;;10552852;28;20215;-77
2022/09/08 03:26:39;;;;;;;0.90;0.90;;;20.30;43.70;;;;;;10556557;27;20235;-77
2022/09/08 03:31:44;;;;;;;1.07;0.90;;;20.30;43.90;;;;;;10551287;28;20231;-77
2022/09/08 03:36:47;;;;;;;0.90;0.90;;;20.30;44.50;;;;;;10547511;27;20711;-77
2022/09/08 03:41:50;;;;;;;0.90;0.90;;;20.30;43.80;;;;;;10551953;28;20230;-76
2022/09/08 03:46:55;;;;;;;1.10;1.10;;;20.40;43.90;;;;;;10550157;28;20661;-76
2022/09/08 03:52:00;;;;;;;1.43;1.10;;;20.40;44.60;;;;;;10549260;28;20238;-77
2022/09/08 03:57:04;;;;;;;1.13;1.03;;;20.50;44.00;;;;;;10550877;27;20787;-76
2022/09/08 04:02:08;;;;;;;1.27;1.17;;;20.50;43.90;;;;;;10556171;28;20215;-77
2022/09/08 04:07:12;;;;;;;1.40;1.30;;;20.50;44.40;;;;;;10555158;28;20231;-77
2022/09/08 04:12:15;;;;;;;1.13;1.10;;;20.50;43.90;;;;;;10558246;27;20231;-76
2022/09/08 04:17:21;;;;;;;1.17;1.07;;;20.50;43.90;;;;;;10558142;27;20226;-77
2022/09/08 04:22:25;;;;;;;1.20;1.10;;;20.40;44.80;;;;;;10561473;28;20907;-76
2022/09/08 04:27:28;;;;;;;1.30;1.20;;;20.40;44.40;;;;;;10551148;28;20231;-76
2022/09/08 04:32:35;;;;;;;1.30;1.20;;;20.50;44.30;;;;;;10548500;27;20342;-76
2022/09/08 04:37:38;;;;;;;1.83;1.40;;;20.50;44.90;;;;;;10562778;27;20695;-77
2022/09/08 04:42:42;;;;;;;4.93;1.40;;;20.40;44.20;;;;;;10566485;28;20231;-77
2022/09/08 04:47:46;;;;;;;2.73;1.40;;;20.30;44.20;;;;;;10566889;27;20739;-76
2022/09/08 04:52:49;;;;;;;1.67;1.30;;;20.30;45.10;;;;;;10563501;28;20227;-77
2022/09/08 04:57:52;;;;;;;1.33;1.23;;;20.20;44.60;;;;;;10569494;28;20222;-77
2022/09/08 05:02:57;;;;;;;1.50;1.37;;;20.20;44.80;;;;;;10570413;28;20223;-77
2022/09/08 05:08:00;;;;;;;1.60;1.50;;;20.20;45.50;;;;;;10565580;27;20284;-77
2022/09/08 05:13:04;;;;;;;1.70;1.60;;;20.20;45.00;;;;;;10569493;27;20288;-77
2022/09/08 05:18:08;;;;;;;1.83;1.67;;;20.20;45.30;;;;;;10560464;27;20243;-77
2022/09/08 05:23:11;;;;;;;1.87;1.77;;;20.20;45.90;;;;;;10565766;27;20227;-77
2022/09/08 05:28:14;;;;;;;2.63;2.00;;;20.10;45.40;;;;;;10563695;27;20647;-77
2022/09/08 05:33:19;;;;;;;2.07;1.97;;;20.10;45.70;;;;;;10565738;28;20234;-76
2022/09/08 05:38:23;;;;;;;2.20;2.10;;;20.00;46.80;;;;;;10563464;27;20235;-76
2022/09/08 05:43:26;;;;;;;2.03;1.90;;;20.00;46.20;;;;;;10566463;27;20234;-76
2022/09/08 05:48:31;;;;;;;2.00;1.80;;;20.00;46.20;;;;;;10562123;27;20235;-76
2022/09/08 05:53:34;;;;;;;2.00;1.60;;;20.00;47.00;;;;;;10562465;27;20643;-76
2022/09/08 05:58:38;;;;;;;1.97;1.63;;;20.00;46.50;;;;;;10564607;28;20229;-76
2022/09/08 06:03:42;;;;;;;1.97;1.87;;;20.10;46.60;;;;;;10565586;28;20238;-77
2022/09/08 06:08:46;;;;;;;2.30;2.10;;;20.10;47.40;;;;;;10561695;27;20227;-78
2022/09/08 06:13:49;;;;;;;3.57;2.40;;;20.10;46.80;;;;;;10553676;28;20230;-77
2022/09/08 06:18:54;;;;;;;3.70;2.40;;;20.20;46.80;;;;;;10559807;27;20227;-76
2022/09/08 06:23:59;;;;;;;1.93;1.83;;;20.20;47.50;;;;;;10560104;27;20263;-78
2022/09/08 06:29:10;;;;;;;1.80;1.70;;;20.30;47.50;;;;;;10562180;28;20261;-77
2022/09/08 06:34:20;;;;;;;2.93;1.93;;;20.30;48.10;;;;;;10560352;27;20231;-75
2022/09/08 06:39:28;;;;;;;2.33;2.03;;;20.40;48.50;;;;;;10557893;27;20624;-75
2022/09/08 06:44:35;;;;;;;1.67;1.57;;;20.40;48.10;;;;;;10556907;28;20238;-75
2022/09/08 06:49:39;;;;;;;1.60;1.50;;;20.40;48.10;;;;;;10549487;28;20291;-76
2022/09/08 06:54:49;;;;;;;0.90;0.90;;;20.40;47.70;;;;;;10556633;28;20223;-75
2022/09/08 07:00:01;;;;;;;1.10;1.10;;;20.40;47.70;;;;;;10555550;28;20223;-76
2022/09/08 07:05:17;;;;;;;1.13;1.10;;;20.40;47.90;;;;;;10559388;28;20226;-75
2022/09/08 07:10:25;;;;;;;1.07;1.00;;;20.40;47.80;;;;;;10552782;27;20226;-77
2022/09/08 07:15:48;;;;;;;1.73;1.47;;;20.40;46.90;;;;;;10560309;28;20284;-76
2022/09/08 07:21:04;;;;;;;2.20;1.67;;;20.40;47.60;;;;;;10557503;27;20219;-76
2022/09/08 07:26:12;;;;;;;1.40;1.30;;;20.30;47.60;;;;;;10552782;28;20284;-76
2022/09/08 07:44:13;;;;;;;0.80;0.80;;;20.00;48.20;;;;;;10537258;28;20631;-75
2022/09/08 07:49:23;;;;;;;1.40;0.90;;;20.00;48.70;;;;;;10564832;28;20617;-76
2022/09/08 07:54:45;;;;;;;0.97;0.90;;;20.00;48.70;;;;;;10566928;27;20980;-77
2022/09/08 07:59:59;;;;;;;1.10;0.90;;;19.90;48.70;;;;;;10562438;28;20240;-77
2022/09/08 08:05:18;;;;;;;1.00;0.80;;;19.90;49.40;;;;;;10550092;27;20306;-77
2022/09/08 08:10:25;;;;;;;0.80;0.80;;;19.90;48.70;;;;;;10563161;28;20314;-77
2022/09/08 08:15:42;;;;;;;1.80;0.83;;;19.90;48.70;;;;;;10553140;28;20227;-77
2022/09/08 08:20:51;;;;;;;0.70;0.70;;;19.90;49.20;;;;;;10560788;28;20302;-77
2022/09/08 08:26:00;;;;;;;0.90;0.90;;;19.80;48.80;;;;;;10564123;28;20226;-77
2022/09/08 08:31:15;;;;;;;0.70;0.70;;;19.90;48.70;;;;;;10558779;28;20709;-78
2022/09/08 08:36:22;;;;;;;0.73;0.73;;;19.90;49.70;;;;;;10562851;28;20226;-80
2022/09/08 08:41:38;;;;;;;0.97;0.93;;;19.90;49.00;;;;;;10558627;28;20239;-77
2022/09/08 08:47:24;;;;;;;0.70;0.70;;;19.90;49.90;;;;;;10563029;28;20790;-79
2022/09/08 08:52:49;;;;;;;1.13;1.03;;;20.00;49.40;;;;;;10565233;28;20608;-76
2022/09/08 08:58:01;;;;;;;1.10;0.77;;;20.00;50.30;;;;;;10560094;28;20239;-76
2022/09/08 09:03:46;;;;;;;0.83;0.83;;;20.00;50.30;;;;;;10556416;28;20235;-76
2022/09/08 09:09:16;;;;;;;0.80;0.80;;;20.10;50.20;;;;;;10564317;28;20234;-79
2022/09/08 09:14:47;;;;;;;1.83;0.90;;;20.20;50.10;;;;;;10553352;28;20314;-76
2022/09/08 09:20:46;;;;;;;0.83;0.73;;;20.20;49.60;;;;;;10545263;28;20280;-79
2022/09/08 09:25:58;;;;;;;1.27;0.87;;;20.30;49.40;;;;;;10561347;27;20227;-77
2022/09/08 09:31:20;;;;;;;0.80;0.80;;;20.30;49.90;;;;;;10556613;28;20237;-78
2022/09/08 09:36:55;;;;;;;0.93;0.87;;;20.40;50.30;;;;;;10564896;27;20701;-76
2022/09/08 09:42:28;;;;;;;1.07;0.97;;;20.40;50.00;;;;;;10564312;28;20226;-78
2022/09/08 09:47:48;;;;;;;1.00;1.00;;;20.40;50.20;;;;;;10566948;27;20218;-78
2022/09/08 09:53:04;;;;;;;1.00;0.90;;;20.50;50.80;;;;;;10562090;27;20234;-78
2022/09/08 09:59:08;;;;;;;0.90;0.90;;;20.60;50.50;;;;;;10565219;28;20295;-78
2022/09/08 10:04:47;;;;;;;1.27;1.00;;;20.70;49.90;;;;;;10537384;27;20301;-78
2022/09/08 10:10:15;;;;;;;0.80;0.80;;;20.90;50.20;;;;;;10562017;28;20222;-78
2022/09/08 10:15:38;;;;;;;1.60;1.00;;;21.00;51.50;;;;;;10565465;27;20302;-79
2022/09/08 10:21:29;;;;;;;1.10;1.10;;;21.10;50.10;;;;;;10574144;28;20702;-80
2022/09/08 10:26:47;;;;;;;0.90;0.90;;;21.20;49.80;;;;;;10575213;27;20219;-79
2022/09/08 10:32:37;;;;;;;0.93;0.80;;;21.30;49.90;;;;;;10584241;27;20253;-79
2022/09/08 10:38:17;;;;;;;0.87;0.60;;;21.40;49.00;;;;;;10579255;27;20238;-79
2022/09/08 10:43:50;;;;;;;1.07;1.00;;;21.40;49.80;;;;;;10544415;28;20222;-78
2022/09/08 10:49:22;;;;;;;0.90;0.90;;;21.50;50.10;;;;;;10571398;28;20603;-77
2022/09/08 10:54:45;;;;;;;1.13;1.03;;;21.60;49.40;;;;;;10578211;28;20227;-78
2022/09/08 11:00:08;;;;;;;1.03;0.80;;;21.70;48.70;;;;;;10571844;28;20225;-78
2022/09/08 11:05:42;;;;;;;1.00;0.90;;;21.80;48.30;;;;;;10583479;28;20227;-80
2022/09/08 11:11:05;;;;;;;1.27;0.90;;;21.90;47.80;;;;;;10572305;28;20272;-80
2022/09/08 11:16:40;;;;;;;0.97;0.80;;;21.90;47.70;;;;;;10572926;28;20215;-77
2022/09/08 11:21:50;;;;;;;1.43;0.97;;;22.00;47.20;;;;;;10561871;28;20231;-78
2022/09/08 11:27:02;;;;;;;1.13;1.03;;;22.00;47.20;;;;;;10560657;28;20227;-77
2022/09/08 11:32:18;;;;;;;1.00;1.00;;;22.00;47.70;;;;;;10560230;28;20222;-79
2022/09/08 11:37:56;;;;;;;0.97;0.90;;;22.10;47.40;;;;;;10565313;27;20222;-77
2022/09/08 11:43:31;;;;;;;0.90;0.80;;;22.20;47.70;;;;;;10558855;28;20264;-78
2022/09/08 11:49:09;;;;;;;0.90;0.90;;;22.50;47.40;;;;;;10559336;28;20726;-78
2022/09/08 11:54:52;;;;;;;1.00;1.00;;;22.70;46.70;;;;;;10566817;28;20699;-77
2022/09/08 12:00:11;;;;;;;0.90;0.90;;;22.90;46.10;;;;;;10567305;28;20231;-78
2022/09/08 12:05:26;;;;;;;1.27;0.90;;;23.00;45.30;;;;;;10566083;27;20226;-78
2022/09/08 12:11:06;;;;;;;0.90;0.90;;;23.00;45.60;;;;;;10556772;28;20300;-79
2022/09/08 12:16:36;;;;;;;1.80;0.83;;;23.10;45.50;;;;;;10566652;27;20226;-78
2022/09/08 12:22:09;;;;;;;1.40;1.27;;;23.10;45.30;;;;;;10564310;27;20230;-79
2022/09/08 12:27:26;;;;;;;1.00;0.90;;;23.20;46.00;;;;;;10558110;28;20221;-77
2022/09/08 12:32:48;;;;;;;1.07;1.00;;;23.30;44.20;;;;;;10563562;28;20230;-78
2022/09/08 12:37:58;;;;;;;1.10;0.97;;;23.40;44.10;;;;;;10556866;28;20250;-80
2022/09/08 12:43:12;;;;;;;1.00;1.00;;;23.40;43.60;;;;;;10557612;28;20277;-78
2022/09/08 12:48:28;;;;;;;1.17;1.07;;;23.40;43.30;;;;;;10566952;28;20272;-76
2022/09/08 12:54:03;;;;;;;0.90;0.90;;;23.50;43.10;;;;;;10562967;28;20584;-77
2022/09/08 12:59:21;;;;;;;0.93;0.90;;;23.50;43.70;;;;;;10564745;28;20214;-77
2022/09/08 13:04:39;;;;;;;0.90;0.90;;;23.50;43.70;;;;;;10560832;28;20226;-77
2022/09/08 13:09:58;;;;;;;1.20;1.00;;;23.60;43.20;;;;;;10564918;27;20646;-78
2022/09/08 13:15:19;;;;;;;1.63;1.03;;;23.60;42.90;;;;;;10568455;27;20227;-79
2022/09/08 13:20:29;;;;;;;3.17;1.00;;;23.60;43.40;;;;;;10570509;28;20579;-79
2022/09/08 13:25:42;;;;;;;0.93;0.93;;;23.60;43.80;;;;;;10567595;28;20257;-78
2022/09/08 13:30:57;;;;;;;0.80;0.80;;;23.50;44.10;;;;;;10568142;27;20227;-79
2022/09/08 13:36:20;;;;;;;1.17;1.00;;;23.40;44.30;;;;;;10563396;28;20230;-79
2022/09/08 13:41:47;;;;;;;1.80;1.00;;;23.30;43.80;;;;;;10565975;28;20276;-77
2022/09/08 13:47:02;;;;;;;1.10;0.97;;;23.30;43.80;;;;;;10566544;27;20222;-79
2022/09/08 13:52:34;;;;;;;1.17;1.00;;;23.30;44.40;;;;;;10557998;28;20221;-77
2022/09/08 13:58:00;;;;;;;0.97;0.97;;;23.30;44.50;;;;;;10558636;28;20284;-76
2022/09/08 14:03:06;;;;;;;0.80;0.80;;;23.30;45.60;;;;;;10557731;28;20925;-77
2022/09/08 14:08:18;;;;;;;1.40;0.70;;;23.40;44.20;;;;;;10559651;27;20306;-76
2022/09/08 14:13:32;;;;;;;1.20;0.90;;;23.50;44.50;;;;;;10560716;27;20295;-76
2022/09/08 14:18:53;;;;;;;1.77;1.00;;;23.50;43.80;;;;;;10560416;28;20219;-77
2022/09/08 14:24:19;;;;;;;1.47;1.00;;;23.60;43.40;;;;;;10557434;28;20866;-78
2022/09/08 14:29:43;;;;;;;1.47;1.00;;;23.60;41.90;;;;;;10562677;28;20253;-77
2022/09/08 14:35:06;;;;;;;0.80;0.80;;;23.60;42.10;;;;;;10561961;28;20231;-79
2022/09/08 14:40:19;;;;;;;1.10;0.97;;;23.70;42.90;;;;;;10560357;28;20230;-77
2022/09/08 14:45:28;;;;;;;1.00;0.90;;;23.80;42.10;;;;;;10555631;28;20249;-76
2022/09/08 14:51:08;;;;;;;0.90;0.90;;;23.90;41.70;;;;;;10556528;28;20238;-76
2022/09/08 14:56:23;;;;;;;1.43;1.13;;;23.90;42.40;;;;;;10550416;28;20275;-77
2022/09/08 15:01:34;;;;;;;1.07;1.07;;;24.00;41.60;;;;;;10558398;28;20227;-76
2022/09/08 15:06:58;;;;;;;1.00;1.00;;;24.10;41.30;;;;;;10555697;28;20235;-75
2022/09/08 15:12:26;;;;;;;1.17;1.07;;;24.20;41.80;;;;;;10552896;28;20272;-75
2022/09/08 15:17:35;;;;;;;1.20;1.00;;;24.30;40.80;;;;;;10554328;28;20218;-75
2022/09/08 15:22:46;;;;;;;1.20;1.10;;;24.30;40.30;;;;;;10555667;28;20700;-75
2022/09/08 15:27:51;;;;;;;1.00;1.00;;;24.30;40.30;;;;;;10554410;28;20280;-75
2022/09/08 15:33:10;;;;;;;1.33;1.00;;;24.40;41.40;;;;;;10559396;28;20566;-75
2022/09/08 15:38:31;;;;;;;1.03;1.00;;;24.30;40.30;;;;;;10561006;28;20222;-75
2022/09/08 15:43:41;;;;;;;1.00;0.90;;;24.40;40.40;;;;;;10553464;28;20592;-76
2022/09/08 15:48:58;;;;;;;1.07;0.90;;;24.40;40.30;;;;;;10556861;28;20297;-76
2022/09/08 15:54:28;;;;;;;0.73;0.73;;;24.40;38.80;;;;;;10552786;28;20223;-77
2022/09/08 15:59:54;;;;;;;0.97;0.87;;;24.40;38.60;;;;;;10562768;27;20866;-76
2022/09/08 16:05:09;;;;;;;1.00;1.00;;;24.40;38.70;;;;;;10566122;27;20315;-75
2022/09/08 16:10:16;;;;;;;1.17;0.87;;;24.40;39.00;;;;;;10563785;27;20230;-76
2022/09/08 16:15:28;;;;;;;1.10;1.00;;;24.40;39.20;;;;;;10564146;28;20663;-76
2022/09/08 16:20:33;;;;;;;0.80;0.80;;;24.40;38.80;;;;;;10563212;28;20711;-75
2022/09/08 16:25:45;;;;;;;1.53;0.90;;;24.40;38.40;;;;;;10564845;28;20223;-75
2022/09/08 16:31:06;;;;;;;1.07;0.97;;;24.40;37.90;;;;;;10562523;28;20276;-75
2022/09/08 16:36:17;;;;;;;0.90;0.57;;;24.30;38.20;;;;;;10561234;28;20218;-76
2022/09/08 16:41:36;;;;;;;0.80;0.80;;;24.30;38.40;;;;;;10565708;28;20223;-76
2022/09/08 16:46:40;;;;;;;0.80;0.77;;;24.30;37.80;;;;;;10575464;28;20227;-75
2022/09/08 16:51:56;;;;;;;1.17;1.00;;;24.30;38.70;;;;;;10575425;28;20238;-75
2022/09/08 16:57:06;;;;;;;0.80;0.80;;;24.30;38.20;;;;;;10574751;28;20588;-76
2022/09/08 17:02:20;;;;;;;0.93;0.80;;;24.30;39.00;;;;;;10575541;28;20280;-75
2022/09/08 17:07:31;;;;;;;1.43;1.00;;;24.30;38.90;;;;;;10575832;27;20230;-76
2022/09/08 17:12:36;;;;;;;0.87;0.87;;;24.20;38.50;;;;;;10575270;27;20231;-76
2022/09/08 17:18:02;;;;;;;1.50;1.13;;;24.20;39.30;;;;;;10575234;28;20583;-75
2022/09/08 17:23:15;;;;;;;1.57;0.93;;;24.10;39.10;;;;;;10574743;28;20580;-76
2022/09/08 17:29:00;;;;;;;0.93;0.90;;;24.10;39.30;;;;;;10575116;27;20658;-77
2022/09/08 17:34:35;;;;;;;2.00;0.90;;;24.10;39.50;;;;;;10559146;28;20289;-76
2022/09/08 17:39:45;;;;;;;1.73;0.90;;;24.00;39.70;;;;;;10564388;28;20238;-77
2022/09/08 17:45:06;;;;;;;0.80;0.80;;;24.00;39.60;;;;;;10572189;28;20227;-78
2022/09/08 17:50:19;;;;;;;2.77;1.00;;;23.90;39.80;;;;;;10562221;28;20223;-78
2022/09/08 17:55:39;;;;;;;0.63;0.63;;;23.90;39.80;;;;;;10567539;28;20230;-78
2022/09/08 18:00:49;;;;;;;0.70;0.70;;;23.80;39.50;;;;;;10561382;28;20218;-77
2022/09/08 18:05:55;;;;;;;2.43;1.17;;;23.60;39.60;;;;;;10563478;28;20329;-75
2022/09/08 18:11:06;;;;;;;1.20;1.10;;;23.50;39.60;;;;;;10571193;28;20230;-76
2022/09/08 18:16:18;;;;;;;1.00;0.97;;;23.40;39.50;;;;;;10558097;28;20268;-77
2022/09/08 18:21:41;;;;;;;1.00;1.00;;;23.20;39.30;;;;;;10565349;28;20759;-78
2022/09/08 18:26:53;;;;;;;1.30;1.17;;;23.10;39.20;;;;;;10555409;28;20637;-78
2022/09/08 18:32:05;;;;;;;1.80;0.87;;;23.00;39.20;;;;;;10566875;28;20218;-77
2022/09/08 18:37:14;;;;;;;2.00;0.90;;;22.90;39.40;;;;;;10567439;28;20244;-79
2022/09/08 18:42:33;;;;;;;1.00;0.80;;;22.90;39.60;;;;;;10576031;28;20791;-77
2022/09/08 18:48:01;;;;;;;1.47;0.90;;;22.80;39.40;;;;;;10552983;27;20223;-79
2022/09/08 18:53:24;;;;;;;0.80;0.80;;;22.70;39.50;;;;;;10552803;28;20226;-76
2022/09/08 18:58:58;;;;;;;0.90;0.90;;;22.60;39.50;;;;;;10569794;28;20573;-76
2022/09/08 19:04:03;;;;;;;1.23;0.90;;;22.50;39.50;;;;;;10556740;28;20239;-77
2022/09/08 19:09:27;;;;;;;1.27;1.17;;;22.40;39.50;;;;;;10570802;28;20217;-77
2022/09/08 19:14:39;;;;;;;2.03;1.40;;;22.30;39.40;;;;;;10572815;28;20223;-77
2022/09/08 19:19:56;;;;;;;1.47;1.37;;;22.20;39.60;;;;;;10569956;28;20340;-77
2022/09/08 19:25:01;;;;;;;1.50;1.40;;;22.00;40.00;;;;;;10553751;28;20729;-77
2022/09/08 19:30:20;;;;;;;2.93;1.43;;;21.90;40.00;;;;;;10553679;28;20221;-77
2022/09/08 19:35:28;;;;;;;2.60;1.50;;;21.90;41.10;;;;;;10568655;28;20654;-77
2022/09/08 19:40:37;;;;;;;1.60;1.50;;;21.80;40.40;;;;;;10550646;28;20231;-75
2022/09/08 19:45:55;;;;;;;1.50;1.40;;;21.70;40.20;;;;;;10533636;28;20720;-77
2022/09/08 19:51:05;;;;;;;2.07;1.80;;;21.60;40.30;;;;;;10535530;28;20254;-73
2022/09/08 19:56:26;;;;;;;1.37;1.27;;;21.60;40.10;;;;;;10534246;28;20301;-74
2022/09/08 20:01:42;;;;;;;1.77;1.60;;;21.50;40.20;;;;;;10529783;28;20231;-74
2022/09/08 20:06:59;;;;;;;1.40;1.30;;;21.40;40.30;;;;;;10534518;28;20238;-74
2022/09/08 20:12:21;;;;;;;1.83;1.73;;;21.30;40.40;;;;;;10535112;28;20593;-75
2022/09/08 20:17:40;;;;;;;1.83;1.70;;;21.30;40.40;;;;;;10533827;28;20310;-75
2022/09/08 20:22:58;;;;;;;1.80;1.50;;;21.20;40.50;;;;;;10530223;28;20246;-75
2022/09/08 20:28:21;;;;;;;2.27;1.80;;;21.20;40.70;;;;;;10530832;28;20229;-75
2022/09/08 20:33:40;;;;;;;2.33;1.80;;;21.10;40.50;;;;;;10529261;28;20238;-73
2022/09/08 20:39:35;;;;;;;2.50;1.97;;;21.10;40.50;;;;;;10527421;28;20235;-75
2022/09/08 20:44:44;;;;;;;2.10;1.90;;;20.90;40.50;;;;;;10479255;28;20224;-77
2022/09/08 20:49:59;;;;;;;2.07;1.70;;;20.90;40.60;;;;;;10519720;28;20231;-75
2022/09/08 20:55:12;;;;;;;1.87;1.77;;;20.80;41.50;;;;;;10527557;28;20718;-76
2022/09/08 21:00:25;;;;;;;3.23;1.70;;;20.80;40.80;;;;;;10527824;28;20223;-75
2022/09/08 21:05:31;;;;;;;1.60;1.50;;;20.70;40.70;;;;;;10527039;28;20591;-75
2022/09/08 21:10:39;;;;;;;1.60;1.50;;;20.70;40.50;;;;;;10526965;28;20280;-75
2022/09/08 21:15:53;;;;;;;1.93;1.80;;;20.60;40.60;;;;;;10527349;28;21027;-75
2022/09/08 21:21:05;;;;;;;1.67;1.57;;;20.50;40.40;;;;;;10526059;28;21010;-74
2022/09/08 21:26:17;;;;;;;2.23;2.03;;;20.40;40.40;;;;;;10525152;28;20239;-74
2022/09/08 21:31:34;;;;;;;1.60;1.50;;;20.30;40.40;;;;;;10525262;28;20258;-75
2022/09/08 21:36:50;;;;;;;1.87;1.77;;;20.20;40.70;;;;;;10524943;28;20231;-75
2022/09/08 21:42:00;;;;;;;1.77;1.67;;;20.20;40.80;;;;;;10525982;28;20227;-75
2022/09/08 21:47:07;;;;;;;1.63;1.53;;;20.10;40.80;;;;;;10535042;28;20695;-74
2022/09/08 21:52:22;;;;;;;1.60;1.50;;;20.00;40.70;;;;;;10535721;28;20232;-74
2022/09/08 21:57:42;;;;;;;2.60;1.70;;;20.00;40.80;;;;;;10533521;28;20223;-74
2022/09/08 22:03:06;;;;;;;2.07;1.80;;;19.90;40.90;;;;;;10534023;28;20657;-73
2022/09/08 22:08:15;;;;;;;2.20;1.70;;;19.80;40.70;;;;;;10531776;28;20227;-73
2022/09/08 22:13:24;;;;;;;2.50;1.50;;;19.70;41.00;;;;;;10531781;28;20262;-74
2022/09/08 22:18:35;;;;;;;1.50;1.40;;;19.60;41.00;;;;;;10532591;28;20232;-74
2022/09/08 22:23:54;;;;;;;2.63;1.50;;;19.60;41.10;;;;;;10532583;28;20257;-74
2022/09/08 22:28:57;;;;;;;1.70;1.60;;;19.50;41.00;;;;;;10535638;28;20228;-74
2022/09/08 22:34:08;;;;;;;2.00;1.80;;;19.50;40.80;;;;;;10537666;28;20231;-73
2022/09/08 22:39:35;;;;;;;2.97;1.67;;;19.40;41.10;;;;;;10537825;28;20500;-74
2022/09/08 22:44:46;;;;;;;3.43;1.63;;;19.30;40.80;;;;;;10536852;28;20337;-74
2022/09/08 22:49:56;;;;;;;1.83;1.73;;;19.10;40.70;;;;;;10536805;28;20236;-74
2022/09/08 22:55:12;;;;;;;1.67;1.50;;;18.90;41.20;;;;;;10536734;28;20231;-74
2022/09/08 23:00:21;;;;;;;2.17;1.50;;;18.60;41.50;;;;;;10538364;28;20281;-73
2022/09/08 23:05:29;;;;;;;1.60;1.50;;;18.50;41.80;;;;;;10539676;28;20228;-74
2022/09/08 23:10:34;;;;;;;1.20;1.20;;;18.30;41.80;;;;;;10546013;28;20227;-74
2022/09/08 23:15:51;;;;;;;1.60;1.50;;;18.30;41.80;;;;;;10544065;28;20254;-74
2022/09/08 23:21:00;;;;;;;2.60;1.57;;;18.30;42.40;;;;;;10545154;28;20281;-74
2022/09/08 23:26:19;;;;;;;1.77;1.37;;;18.30;42.20;;;;;;10544071;28;20647;-74
2022/09/08 23:31:40;;;;;;;1.63;1.53;;;18.20;42.20;;;;;;10545110;28;20228;-74
2022/09/08 23:36:49;;;;;;;1.90;1.80;;;18.20;42.30;;;;;;10545888;28;20238;-74
2022/09/08 23:41:55;;;;;;;1.70;1.50;;;18.20;42.00;;;;;;10545801;28;20227;-74
2022/09/08 23:47:01;;;;;;;1.40;1.30;;;18.20;42.00;;;;;;10545412;28;20524;-74
2022/09/08 23:52:08;;;;;;;1.47;1.37;;;18.20;42.00;;;;;;10544912;28;20227;-74
2022/09/08 23:57:12;;;;;;;1.80;1.30;;;18.20;42.10;;;;;;10545356;28;20235;-74
